sensor_id;sensor_type;location;lat;lon;timestamp;P1;durP1;ratioP1;P2;durP2;ratioP2
45007;SDS011;30743;52.008;5.644;2023-09-19T00:00:30;2.55;;;1.00;;
45007;SDS011;30743;52.008;5.644;2023-09-19T00:02:57;2.90;;;0.98;;
45007;SDS011;30743;52.008;5.644;2023-09-19T00:07:53;6.53;;;1.35;;
45007;SDS011;30743;52.008;5.644;2023-09-19T00:10:27;3.33;;;1.35;;
45007;SDS011;30743;52.008;5.644;2023-09-19T00:12:56;5.22;;;1.02;;
45007;SDS011;30743;52.008;5.644;2023-09-19T00:15:23;3.05;;;1.00;;
45007;SDS011;30743;52.008;5.644;2023-09-19T00:17:49;3.40;;;1.35;;
45007;SDS011;30743;52.008;5.644;2023-09-19T00:20:20;4.38;;;1.30;;
45007;SDS011;30743;52.008;5.644;2023-09-19T00:22:47;5.38;;;1.15;;
45007;SDS011;30743;52.008;5.644;2023-09-19T00:25:17;6.25;;;1.45;;
45007;SDS011;30743;52.008;5.644;2023-09-19T00:27:43;5.18;;;1.20;;
45007;SDS011;30743;52.008;5.644;2023-09-19T00:30:10;5.25;;;1.33;;
45007;SDS011;30743;52.008;5.644;2023-09-19T00:32:41;4.30;;;1.10;;
45007;SDS011;30743;52.008;5.644;2023-09-19T00:35:07;4.85;;;1.30;;
45007;SDS011;30743;52.008;5.644;2023-09-19T00:37:35;4.40;;;1.40;;
45007;SDS011;30743;52.008;5.644;2023-09-19T00:40:03;2.83;;;1.15;;
45007;SDS011;30743;52.008;5.644;2023-09-19T00:42:30;3.92;;;1.63;;
45007;SDS011;30743;52.008;5.644;2023-09-19T00:44:56;5.20;;;1.38;;
45007;SDS011;30743;52.008;5.644;2023-09-19T00:47:22;6.72;;;1.60;;
45007;SDS011;30743;52.008;5.644;2023-09-19T00:49:47;3.55;;;1.20;;
45007;SDS011;30743;52.008;5.644;2023-09-19T00:52:17;5.43;;;1.48;;
45007;SDS011;30743;52.008;5.644;2023-09-19T00:54:48;7.30;;;1.63;;
45007;SDS011;30743;52.008;5.644;2023-09-19T00:57:14;3.17;;;1.15;;
45007;SDS011;30743;52.008;5.644;2023-09-19T00:59:44;5.40;;;1.23;;
45007;SDS011;30743;52.008;5.644;2023-09-19T01:02:10;4.22;;;1.50;;
45007;SDS011;30743;52.008;5.644;2023-09-19T01:04:39;5.97;;;1.10;;
45007;SDS011;30743;52.008;5.644;2023-09-19T01:07:05;5.25;;;1.40;;
45007;SDS011;30743;52.008;5.644;2023-09-19T01:09:31;5.05;;;1.77;;
45007;SDS011;30743;52.008;5.644;2023-09-19T01:11:58;7.03;;;1.55;;
45007;SDS011;30743;52.008;5.644;2023-09-19T01:17:03;9.98;;;2.05;;
45007;SDS011;30743;52.008;5.644;2023-09-19T01:22:14;6.30;;;1.55;;
45007;SDS011;30743;52.008;5.644;2023-09-19T01:27:39;9.82;;;1.90;;
45007;SDS011;30743;52.008;5.644;2023-09-19T01:30:35;5.88;;;1.63;;
45007;SDS011;30743;52.008;5.644;2023-09-19T01:33:04;5.93;;;1.30;;
45007;SDS011;30743;52.008;5.644;2023-09-19T01:35:31;7.00;;;1.50;;
45007;SDS011;30743;52.008;5.644;2023-09-19T01:37:57;8.70;;;1.83;;
45007;SDS011;30743;52.008;5.644;2023-09-19T01:40:24;7.80;;;2.03;;
45007;SDS011;30743;52.008;5.644;2023-09-19T01:45:47;7.15;;;1.48;;
45007;SDS011;30743;52.008;5.644;2023-09-19T01:51:02;8.65;;;1.85;;
45007;SDS011;30743;52.008;5.644;2023-09-19T01:53:35;8.00;;;1.60;;
45007;SDS011;30743;52.008;5.644;2023-09-19T01:59:07;8.75;;;1.90;;
45007;SDS011;30743;52.008;5.644;2023-09-19T02:01:55;6.25;;;1.55;;
45007;SDS011;30743;52.008;5.644;2023-09-19T02:04:22;7.45;;;1.50;;
45007;SDS011;30743;52.008;5.644;2023-09-19T02:06:47;8.13;;;1.90;;
45007;SDS011;30743;52.008;5.644;2023-09-19T02:09:13;6.85;;;1.58;;
45007;SDS011;30743;52.008;5.644;2023-09-19T02:11:40;5.85;;;1.85;;
45007;SDS011;30743;52.008;5.644;2023-09-19T02:14:06;7.55;;;1.58;;
45007;SDS011;30743;52.008;5.644;2023-09-19T02:16:33;6.10;;;1.70;;
45007;SDS011;30743;52.008;5.644;2023-09-19T02:18:59;7.40;;;1.50;;
45007;SDS011;30743;52.008;5.644;2023-09-19T02:21:25;8.48;;;1.55;;
45007;SDS011;30743;52.008;5.644;2023-09-19T02:23:54;5.22;;;1.98;;
45007;SDS011;30743;52.008;5.644;2023-09-19T02:26:20;5.97;;;1.67;;
45007;SDS011;30743;52.008;5.644;2023-09-19T02:28:45;7.72;;;1.80;;
45007;SDS011;30743;52.008;5.644;2023-09-19T02:31:11;7.03;;;1.50;;
45007;SDS011;30743;52.008;5.644;2023-09-19T02:33:37;7.57;;;1.50;;
45007;SDS011;30743;52.008;5.644;2023-09-19T02:36:02;7.35;;;2.25;;
45007;SDS011;30743;52.008;5.644;2023-09-19T02:38:29;8.07;;;1.67;;
45007;SDS011;30743;52.008;5.644;2023-09-19T02:40:54;6.10;;;1.50;;
45007;SDS011;30743;52.008;5.644;2023-09-19T02:43:20;6.35;;;1.83;;
45007;SDS011;30743;52.008;5.644;2023-09-19T02:45:46;8.35;;;2.17;;
45007;SDS011;30743;52.008;5.644;2023-09-19T02:48:14;7.20;;;2.17;;
45007;SDS011;30743;52.008;5.644;2023-09-19T02:50:40;5.95;;;1.52;;
45007;SDS011;30743;52.008;5.644;2023-09-19T02:53:07;9.63;;;2.20;;
45007;SDS011;30743;52.008;5.644;2023-09-19T02:55:32;10.43;;;1.88;;
45007;SDS011;30743;52.008;5.644;2023-09-19T02:57:58;7.97;;;2.05;;
45007;SDS011;30743;52.008;5.644;2023-09-19T03:00:25;5.93;;;2.05;;
45007;SDS011;30743;52.008;5.644;2023-09-19T03:02:55;6.65;;;1.50;;
45007;SDS011;30743;52.008;5.644;2023-09-19T03:05:21;8.32;;;2.03;;
45007;SDS011;30743;52.008;5.644;2023-09-19T03:07:51;7.97;;;1.60;;
45007;SDS011;30743;52.008;5.644;2023-09-19T03:10:17;4.32;;;1.40;;
45007;SDS011;30743;52.008;5.644;2023-09-19T03:12:43;7.50;;;1.90;;
45007;SDS011;30743;52.008;5.644;2023-09-19T03:15:09;6.63;;;1.60;;
45007;SDS011;30743;52.008;5.644;2023-09-19T03:17:35;6.72;;;1.73;;
45007;SDS011;30743;52.008;5.644;2023-09-19T03:20:01;7.70;;;1.65;;
45007;SDS011;30743;52.008;5.644;2023-09-19T03:22:29;9.07;;;1.70;;
45007;SDS011;30743;52.008;5.644;2023-09-19T03:24:54;6.82;;;1.80;;
45007;SDS011;30743;52.008;5.644;2023-09-19T03:27:20;8.45;;;1.60;;
45007;SDS011;30743;52.008;5.644;2023-09-19T03:29:45;7.68;;;1.38;;
45007;SDS011;30743;52.008;5.644;2023-09-19T03:32:11;8.18;;;1.63;;
45007;SDS011;30743;52.008;5.644;2023-09-19T03:34:37;5.03;;;1.20;;
45007;SDS011;30743;52.008;5.644;2023-09-19T03:37:07;10.30;;;1.98;;
45007;SDS011;30743;52.008;5.644;2023-09-19T03:39:33;10.02;;;2.20;;
45007;SDS011;30743;52.008;5.644;2023-09-19T03:41:59;12.48;;;1.95;;
45007;SDS011;30743;52.008;5.644;2023-09-19T03:44:25;7.80;;;1.60;;
45007;SDS011;30743;52.008;5.644;2023-09-19T03:46:51;4.95;;;1.55;;
45007;SDS011;30743;52.008;5.644;2023-09-19T03:49:16;6.68;;;1.60;;
45007;SDS011;30743;52.008;5.644;2023-09-19T03:51:42;6.55;;;1.65;;
45007;SDS011;30743;52.008;5.644;2023-09-19T03:54:07;5.93;;;1.38;;
45007;SDS011;30743;52.008;5.644;2023-09-19T03:56:33;7.95;;;1.67;;
45007;SDS011;30743;52.008;5.644;2023-09-19T03:58:59;8.38;;;1.63;;
45007;SDS011;30743;52.008;5.644;2023-09-19T04:01:24;6.75;;;1.40;;
45007;SDS011;30743;52.008;5.644;2023-09-19T04:03:52;7.68;;;1.50;;
45007;SDS011;30743;52.008;5.644;2023-09-19T04:06:18;8.30;;;1.88;;
45007;SDS011;30743;52.008;5.644;2023-09-19T04:08:44;4.55;;;1.30;;
45007;SDS011;30743;52.008;5.644;2023-09-19T04:11:10;6.10;;;1.23;;
45007;SDS011;30743;52.008;5.644;2023-09-19T04:13:36;5.75;;;1.23;;
45007;SDS011;30743;52.008;5.644;2023-09-19T04:16:02;4.07;;;1.33;;
45007;SDS011;30743;52.008;5.644;2023-09-19T04:18:29;10.57;;;2.20;;
45007;SDS011;30743;52.008;5.644;2023-09-19T04:20:57;7.22;;;1.33;;
45007;SDS011;30743;52.008;5.644;2023-09-19T04:23:23;14.27;;;1.45;;
45007;SDS011;30743;52.008;5.644;2023-09-19T04:25:48;4.38;;;1.30;;
45007;SDS011;30743;52.008;5.644;2023-09-19T04:28:15;6.68;;;1.10;;
45007;SDS011;30743;52.008;5.644;2023-09-19T04:30:41;7.65;;;1.65;;
45007;SDS011;30743;52.008;5.644;2023-09-19T04:33:06;7.28;;;1.52;;
45007;SDS011;30743;52.008;5.644;2023-09-19T04:35:32;6.72;;;1.60;;
45007;SDS011;30743;52.008;5.644;2023-09-19T04:37:57;6.18;;;1.60;;
45007;SDS011;30743;52.008;5.644;2023-09-19T04:40:23;9.10;;;2.13;;
45007;SDS011;30743;52.008;5.644;2023-09-19T04:42:54;3.10;;;1.40;;
45007;SDS011;30743;52.008;5.644;2023-09-19T04:45:23;5.60;;;2.13;;
45007;SDS011;30743;52.008;5.644;2023-09-19T04:47:49;7.28;;;1.20;;
45007;SDS011;30743;52.008;5.644;2023-09-19T04:50:15;9.23;;;1.98;;
45007;SDS011;30743;52.008;5.644;2023-09-19T04:52:42;11.40;;;2.47;;
45007;SDS011;30743;52.008;5.644;2023-09-19T04:55:12;5.68;;;1.50;;
45007;SDS011;30743;52.008;5.644;2023-09-19T04:57:48;7.03;;;1.63;;
45007;SDS011;30743;52.008;5.644;2023-09-19T05:00:16;7.05;;;2.03;;
45007;SDS011;30743;52.008;5.644;2023-09-19T05:02:48;5.00;;;1.33;;
45007;SDS011;30743;52.008;5.644;2023-09-19T05:05:16;8.57;;;1.50;;
45007;SDS011;30743;52.008;5.644;2023-09-19T05:07:42;4.18;;;1.10;;
45007;SDS011;30743;52.008;5.644;2023-09-19T05:10:08;4.00;;;1.30;;
45007;SDS011;30743;52.008;5.644;2023-09-19T05:12:35;5.05;;;1.65;;
45007;SDS011;30743;52.008;5.644;2023-09-19T05:15:09;5.88;;;1.50;;
45007;SDS011;30743;52.008;5.644;2023-09-19T05:17:35;5.75;;;1.38;;
45007;SDS011;30743;52.008;5.644;2023-09-19T05:20:01;4.75;;;1.80;;
45007;SDS011;30743;52.008;5.644;2023-09-19T05:22:41;7.85;;;2.13;;
45007;SDS011;30743;52.008;5.644;2023-09-19T05:25:08;6.10;;;1.40;;
45007;SDS011;30743;52.008;5.644;2023-09-19T05:27:34;8.18;;;2.72;;
45007;SDS011;30743;52.008;5.644;2023-09-19T05:30:00;5.82;;;1.42;;
45007;SDS011;30743;52.008;5.644;2023-09-19T05:32:26;3.83;;;1.30;;
45007;SDS011;30743;52.008;5.644;2023-09-19T05:34:51;6.80;;;1.70;;
45007;SDS011;30743;52.008;5.644;2023-09-19T05:37:18;8.52;;;1.60;;
45007;SDS011;30743;52.008;5.644;2023-09-19T05:39:44;6.07;;;1.73;;
45007;SDS011;30743;52.008;5.644;2023-09-19T05:42:09;7.90;;;1.60;;
45007;SDS011;30743;52.008;5.644;2023-09-19T05:44:35;6.05;;;1.70;;
45007;SDS011;30743;52.008;5.644;2023-09-19T05:47:01;5.28;;;1.25;;
45007;SDS011;30743;52.008;5.644;2023-09-19T05:49:27;4.13;;;1.35;;
45007;SDS011;30743;52.008;5.644;2023-09-19T05:51:53;4.72;;;1.20;;
45007;SDS011;30743;52.008;5.644;2023-09-19T05:54:20;7.13;;;1.30;;
45007;SDS011;30743;52.008;5.644;2023-09-19T05:56:45;7.47;;;1.45;;
45007;SDS011;30743;52.008;5.644;2023-09-19T05:59:12;4.30;;;1.25;;
45007;SDS011;30743;52.008;5.644;2023-09-19T06:01:40;6.15;;;2.53;;
45007;SDS011;30743;52.008;5.644;2023-09-19T06:04:07;6.35;;;1.45;;
45007;SDS011;30743;52.008;5.644;2023-09-19T06:06:33;8.07;;;1.58;;
45007;SDS011;30743;52.008;5.644;2023-09-19T06:09:03;7.03;;;1.60;;
45007;SDS011;30743;52.008;5.644;2023-09-19T06:11:30;9.70;;;1.45;;
45007;SDS011;30743;52.008;5.644;2023-09-19T06:13:59;4.20;;;1.23;;
45007;SDS011;30743;52.008;5.644;2023-09-19T06:16:27;6.38;;;1.40;;
45007;SDS011;30743;52.008;5.644;2023-09-19T06:18:57;4.18;;;1.35;;
45007;SDS011;30743;52.008;5.644;2023-09-19T06:21:24;6.90;;;1.63;;
45007;SDS011;30743;52.008;5.644;2023-09-19T06:23:52;7.13;;;1.33;;
45007;SDS011;30743;52.008;5.644;2023-09-19T06:26:18;6.47;;;1.95;;
45007;SDS011;30743;52.008;5.644;2023-09-19T06:28:43;6.60;;;1.67;;
45007;SDS011;30743;52.008;5.644;2023-09-19T06:31:09;6.95;;;1.30;;
45007;SDS011;30743;52.008;5.644;2023-09-19T06:33:35;5.60;;;1.35;;
45007;SDS011;30743;52.008;5.644;2023-09-19T06:36:04;4.85;;;1.20;;
45007;SDS011;30743;52.008;5.644;2023-09-19T06:38:32;10.63;;;1.80;;
45007;SDS011;30743;52.008;5.644;2023-09-19T06:41:00;8.10;;;2.05;;
45007;SDS011;30743;52.008;5.644;2023-09-19T06:43:29;5.70;;;1.65;;
45007;SDS011;30743;52.008;5.644;2023-09-19T06:45:55;6.93;;;1.45;;
45007;SDS011;30743;52.008;5.644;2023-09-19T06:48:22;8.40;;;1.90;;
45007;SDS011;30743;52.008;5.644;2023-09-19T06:50:50;5.43;;;1.67;;
45007;SDS011;30743;52.008;5.644;2023-09-19T06:53:15;5.68;;;1.35;;
45007;SDS011;30743;52.008;5.644;2023-09-19T06:55:42;5.65;;;1.58;;
45007;SDS011;30743;52.008;5.644;2023-09-19T06:58:09;8.20;;;1.60;;
45007;SDS011;30743;52.008;5.644;2023-09-19T07:00:35;6.32;;;1.60;;
45007;SDS011;30743;52.008;5.644;2023-09-19T07:03:03;6.65;;;1.58;;
45007;SDS011;30743;52.008;5.644;2023-09-19T07:05:33;4.22;;;1.40;;
45007;SDS011;30743;52.008;5.644;2023-09-19T07:10:28;4.07;;;1.67;;
45007;SDS011;30743;52.008;5.644;2023-09-19T07:12:57;5.03;;;1.38;;
45007;SDS011;30743;52.008;5.644;2023-09-19T07:18:01;8.95;;;1.70;;
45007;SDS011;30743;52.008;5.644;2023-09-19T07:20:27;7.45;;;1.63;;
45007;SDS011;30743;52.008;5.644;2023-09-19T07:25:24;8.30;;;1.60;;
45007;SDS011;30743;52.008;5.644;2023-09-19T07:27:50;5.90;;;2.17;;
45007;SDS011;30743;52.008;5.644;2023-09-19T07:30:16;7.30;;;1.60;;
45007;SDS011;30743;52.008;5.644;2023-09-19T07:32:42;6.88;;;1.50;;
45007;SDS011;30743;52.008;5.644;2023-09-19T07:35:07;5.43;;;1.60;;
45007;SDS011;30743;52.008;5.644;2023-09-19T07:37:33;5.93;;;1.70;;
45007;SDS011;30743;52.008;5.644;2023-09-19T07:39:59;6.95;;;2.47;;
45007;SDS011;30743;52.008;5.644;2023-09-19T07:42:26;5.00;;;1.30;;
45007;SDS011;30743;52.008;5.644;2023-09-19T07:44:52;6.53;;;1.60;;
45007;SDS011;30743;52.008;5.644;2023-09-19T07:47:18;6.22;;;1.70;;
45007;SDS011;30743;52.008;5.644;2023-09-19T07:49:48;5.07;;;1.30;;
45007;SDS011;30743;52.008;5.644;2023-09-19T07:52:14;6.65;;;1.80;;
45007;SDS011;30743;52.008;5.644;2023-09-19T07:54:40;5.25;;;1.38;;
45007;SDS011;30743;52.008;5.644;2023-09-19T07:57:06;6.18;;;1.80;;
45007;SDS011;30743;52.008;5.644;2023-09-19T07:59:32;5.82;;;1.75;;
45007;SDS011;30743;52.008;5.644;2023-09-19T08:01:57;6.50;;;1.25;;
45007;SDS011;30743;52.008;5.644;2023-09-19T08:04:23;11.93;;;2.00;;
45007;SDS011;30743;52.008;5.644;2023-09-19T08:06:50;5.72;;;1.38;;
45007;SDS011;30743;52.008;5.644;2023-09-19T08:09:17;6.38;;;1.55;;
45007;SDS011;30743;52.008;5.644;2023-09-19T08:11:45;9.30;;;2.22;;
45007;SDS011;30743;52.008;5.644;2023-09-19T08:14:11;6.43;;;1.60;;
45007;SDS011;30743;52.008;5.644;2023-09-19T08:16:39;7.82;;;1.70;;
45007;SDS011;30743;52.008;5.644;2023-09-19T08:19:04;7.00;;;1.83;;
45007;SDS011;30743;52.008;5.644;2023-09-19T08:21:30;8.52;;;2.15;;
45007;SDS011;30743;52.008;5.644;2023-09-19T08:23:57;9.05;;;1.83;;
45007;SDS011;30743;52.008;5.644;2023-09-19T08:26:22;8.13;;;1.92;;
45007;SDS011;30743;52.008;5.644;2023-09-19T08:28:49;9.88;;;1.50;;
45007;SDS011;30743;52.008;5.644;2023-09-19T08:31:16;7.07;;;1.98;;
45007;SDS011;30743;52.008;5.644;2023-09-19T08:33:42;7.28;;;2.13;;
45007;SDS011;30743;52.008;5.644;2023-09-19T08:36:15;10.52;;;2.95;;
45007;SDS011;30743;52.008;5.644;2023-09-19T08:38:40;5.68;;;1.58;;
45007;SDS011;30743;52.008;5.644;2023-09-19T08:41:06;6.57;;;1.98;;
45007;SDS011;30743;52.008;5.644;2023-09-19T08:43:33;6.07;;;1.52;;
45007;SDS011;30743;52.008;5.644;2023-09-19T08:46:08;10.88;;;3.45;;
45007;SDS011;30743;52.008;5.644;2023-09-19T08:48:34;7.53;;;1.80;;
45007;SDS011;30743;52.008;5.644;2023-09-19T08:51:10;8.18;;;2.05;;
45007;SDS011;30743;52.008;5.644;2023-09-19T08:56:11;9.27;;;1.92;;
45007;SDS011;30743;52.008;5.644;2023-09-19T08:58:46;5.30;;;1.67;;
45007;SDS011;30743;52.008;5.644;2023-09-19T09:01:16;8.32;;;2.03;;
45007;SDS011;30743;52.008;5.644;2023-09-19T09:03:49;6.85;;;1.95;;
45007;SDS011;30743;52.008;5.644;2023-09-19T09:06:19;8.35;;;2.35;;
45007;SDS011;30743;52.008;5.644;2023-09-19T09:08:45;6.55;;;2.03;;
45007;SDS011;30743;52.008;5.644;2023-09-19T09:11:13;8.20;;;1.90;;
45007;SDS011;30743;52.008;5.644;2023-09-19T09:13:39;9.32;;;1.63;;
45007;SDS011;30743;52.008;5.644;2023-09-19T09:16:06;6.57;;;1.58;;
45007;SDS011;30743;52.008;5.644;2023-09-19T09:18:32;7.25;;;1.98;;
45007;SDS011;30743;52.008;5.644;2023-09-19T09:20:58;5.95;;;1.42;;
45007;SDS011;30743;52.008;5.644;2023-09-19T09:23:23;7.05;;;1.45;;
45007;SDS011;30743;52.008;5.644;2023-09-19T09:25:54;8.63;;;1.67;;
45007;SDS011;30743;52.008;5.644;2023-09-19T09:28:33;5.43;;;1.60;;
45007;SDS011;30743;52.008;5.644;2023-09-19T09:31:00;4.60;;;1.20;;
45007;SDS011;30743;52.008;5.644;2023-09-19T09:33:28;6.25;;;1.73;;
45007;SDS011;30743;52.008;5.644;2023-09-19T09:38:25;7.07;;;2.35;;
45007;SDS011;30743;52.008;5.644;2023-09-19T09:40:54;8.07;;;1.63;;
45007;SDS011;30743;52.008;5.644;2023-09-19T09:43:35;9.27;;;1.90;;
45007;SDS011;30743;52.008;5.644;2023-09-19T09:46:15;7.30;;;1.67;;
45007;SDS011;30743;52.008;5.644;2023-09-19T09:49:00;6.80;;;1.88;;
45007;SDS011;30743;52.008;5.644;2023-09-19T09:52:01;7.72;;;1.80;;
45007;SDS011;30743;52.008;5.644;2023-09-19T09:54:59;6.10;;;1.70;;
45007;SDS011;30743;52.008;5.644;2023-09-19T09:57:26;6.18;;;1.70;;
45007;SDS011;30743;52.008;5.644;2023-09-19T09:59:52;6.03;;;1.50;;
45007;SDS011;30743;52.008;5.644;2023-09-19T10:02:21;6.47;;;1.70;;
45007;SDS011;30743;52.008;5.644;2023-09-19T10:05:18;7.70;;;1.42;;
45007;SDS011;30743;52.008;5.644;2023-09-19T10:07:53;9.23;;;1.50;;
45007;SDS011;30743;52.008;5.644;2023-09-19T10:10:35;4.97;;;1.58;;
45007;SDS011;30743;52.008;5.644;2023-09-19T10:13:08;5.03;;;1.60;;
45007;SDS011;30743;52.008;5.644;2023-09-19T10:15:38;6.45;;;1.95;;
45007;SDS011;30743;52.008;5.644;2023-09-19T10:18:11;6.07;;;1.60;;
45007;SDS011;30743;52.008;5.644;2023-09-19T10:20:43;8.05;;;1.60;;
45007;SDS011;30743;52.008;5.644;2023-09-19T10:23:11;4.80;;;1.45;;
45007;SDS011;30743;52.008;5.644;2023-09-19T10:25:43;8.90;;;1.73;;
45007;SDS011;30743;52.008;5.644;2023-09-19T10:28:14;4.45;;;1.35;;
45007;SDS011;30743;52.008;5.644;2023-09-19T10:30:47;3.92;;;1.20;;
45007;SDS011;30743;52.008;5.644;2023-09-19T10:33:15;5.77;;;1.40;;
45007;SDS011;30743;52.008;5.644;2023-09-19T10:35:46;6.43;;;1.63;;
45007;SDS011;30743;52.008;5.644;2023-09-19T10:38:22;5.63;;;1.35;;
45007;SDS011;30743;52.008;5.644;2023-09-19T10:40:50;5.53;;;1.88;;
45007;SDS011;30743;52.008;5.644;2023-09-19T10:43:18;9.43;;;2.05;;
45007;SDS011;30743;52.008;5.644;2023-09-19T10:45:46;3.60;;;0.93;;
45007;SDS011;30743;52.008;5.644;2023-09-19T10:48:17;4.60;;;1.40;;
45007;SDS011;30743;52.008;5.644;2023-09-19T10:50:46;4.95;;;1.30;;
45007;SDS011;30743;52.008;5.644;2023-09-19T10:53:24;7.70;;;1.60;;
45007;SDS011;30743;52.008;5.644;2023-09-19T10:55:52;6.93;;;1.55;;
45007;SDS011;30743;52.008;5.644;2023-09-19T10:58:28;2.97;;;0.95;;
45007;SDS011;30743;52.008;5.644;2023-09-19T11:00:59;4.40;;;1.50;;
45007;SDS011;30743;52.008;5.644;2023-09-19T11:03:32;5.68;;;1.63;;
45007;SDS011;30743;52.008;5.644;2023-09-19T11:06:05;7.03;;;1.38;;
45007;SDS011;30743;52.008;5.644;2023-09-19T11:30:51;5.07;;;0.90;;
45007;SDS011;30743;52.008;5.644;2023-09-19T11:33:22;3.92;;;1.30;;
45007;SDS011;30743;52.008;5.644;2023-09-19T11:36:00;7.57;;;1.42;;
45007;SDS011;30743;52.008;5.644;2023-09-19T11:43:45;4.47;;;0.90;;
45007;SDS011;30743;52.008;5.644;2023-09-19T11:46:11;5.43;;;1.10;;
45007;SDS011;30743;52.008;5.644;2023-09-19T11:48:41;3.38;;;1.25;;
45007;SDS011;30743;52.008;5.644;2023-09-19T11:51:12;6.28;;;1.33;;
45007;SDS011;30743;52.008;5.644;2023-09-19T11:53:44;5.38;;;1.10;;
45007;SDS011;30743;52.008;5.644;2023-09-19T11:56:13;5.20;;;1.00;;
45007;SDS011;30743;52.008;5.644;2023-09-19T11:58:43;3.85;;;0.98;;
45007;SDS011;30743;52.008;5.644;2023-09-19T12:01:14;5.57;;;1.80;;
45007;SDS011;30743;52.008;5.644;2023-09-19T12:03:46;4.60;;;1.02;;
45007;SDS011;30743;52.008;5.644;2023-09-19T12:06:15;4.13;;;0.70;;
45007;SDS011;30743;52.008;5.644;2023-09-19T12:08:42;3.58;;;0.90;;
45007;SDS011;30743;52.008;5.644;2023-09-19T12:11:12;3.50;;;0.82;;
45007;SDS011;30743;52.008;5.644;2023-09-19T12:13:46;10.02;;;1.08;;
45007;SDS011;30743;52.008;5.644;2023-09-19T12:16:14;3.33;;;1.27;;
45007;SDS011;30743;52.008;5.644;2023-09-19T12:18:41;4.15;;;1.33;;
45007;SDS011;30743;52.008;5.644;2023-09-19T12:21:28;5.47;;;1.25;;
45007;SDS011;30743;52.008;5.644;2023-09-19T12:24:07;6.85;;;1.63;;
45007;SDS011;30743;52.008;5.644;2023-09-19T12:26:41;3.25;;;0.70;;
45007;SDS011;30743;52.008;5.644;2023-09-19T12:29:15;4.68;;;1.15;;
45007;SDS011;30743;52.008;5.644;2023-09-19T12:31:49;2.53;;;1.05;;
45007;SDS011;30743;52.008;5.644;2023-09-19T12:34:16;4.57;;;1.10;;
45007;SDS011;30743;52.008;5.644;2023-09-19T12:36:44;3.38;;;1.02;;
45007;SDS011;30743;52.008;5.644;2023-09-19T12:39:10;5.75;;;0.80;;
45007;SDS011;30743;52.008;5.644;2023-09-19T12:41:37;3.63;;;0.82;;
45007;SDS011;30743;52.008;5.644;2023-09-19T12:44:03;2.08;;;0.70;;
45007;SDS011;30743;52.008;5.644;2023-09-19T12:46:34;1.27;;;0.40;;
45007;SDS011;30743;52.008;5.644;2023-09-19T12:49:17;2.88;;;0.90;;
45007;SDS011;30743;52.008;5.644;2023-09-19T12:51:43;3.95;;;0.77;;
45007;SDS011;30743;52.008;5.644;2023-09-19T12:54:12;8.65;;;1.20;;
45007;SDS011;30743;52.008;5.644;2023-09-19T12:56:42;3.05;;;0.63;;
45007;SDS011;30743;52.008;5.644;2023-09-19T12:59:09;3.47;;;0.80;;
45007;SDS011;30743;52.008;5.644;2023-09-19T13:01:38;2.10;;;0.80;;
45007;SDS011;30743;52.008;5.644;2023-09-19T13:04:10;3.80;;;0.80;;
45007;SDS011;30743;52.008;5.644;2023-09-19T13:06:43;1.73;;;0.60;;
45007;SDS011;30743;52.008;5.644;2023-09-19T13:09:09;10.68;;;1.33;;
45007;SDS011;30743;52.008;5.644;2023-09-19T13:11:36;3.60;;;0.63;;
45007;SDS011;30743;52.008;5.644;2023-09-19T13:16:55;2.53;;;0.68;;
45007;SDS011;30743;52.008;5.644;2023-09-19T13:19:38;2.20;;;0.60;;
45007;SDS011;30743;52.008;5.644;2023-09-19T13:25:14;2.58;;;0.77;;
45007;SDS011;30743;52.008;5.644;2023-09-19T13:27:43;1.67;;;0.57;;
45007;SDS011;30743;52.008;5.644;2023-09-19T13:30:20;2.80;;;0.80;;
45007;SDS011;30743;52.008;5.644;2023-09-19T13:32:47;3.72;;;0.80;;
45007;SDS011;30743;52.008;5.644;2023-09-19T13:35:16;4.55;;;0.80;;
45007;SDS011;30743;52.008;5.644;2023-09-19T13:37:42;6.13;;;0.95;;
45007;SDS011;30743;52.008;5.644;2023-09-19T13:42:34;3.60;;;0.77;;
45007;SDS011;30743;52.008;5.644;2023-09-19T13:45:01;2.63;;;1.00;;
45007;SDS011;30743;52.008;5.644;2023-09-19T13:47:29;4.45;;;0.60;;
45007;SDS011;30743;52.008;5.644;2023-09-19T13:49:55;3.15;;;0.60;;
45007;SDS011;30743;52.008;5.644;2023-09-19T13:52:20;4.45;;;1.00;;
45007;SDS011;30743;52.008;5.644;2023-09-19T13:54:48;3.50;;;0.80;;
45007;SDS011;30743;52.008;5.644;2023-09-19T13:57:15;0.85;;;0.43;;
45007;SDS011;30743;52.008;5.644;2023-09-19T13:59:41;1.35;;;0.45;;
45007;SDS011;30743;52.008;5.644;2023-09-19T14:02:07;2.42;;;0.57;;
45007;SDS011;30743;52.008;5.644;2023-09-19T14:04:32;2.80;;;0.85;;
45007;SDS011;30743;52.008;5.644;2023-09-19T14:06:59;1.20;;;0.55;;
45007;SDS011;30743;52.008;5.644;2023-09-19T14:09:25;6.30;;;1.23;;
45007;SDS011;30743;52.008;5.644;2023-09-19T14:11:51;2.90;;;0.60;;
45007;SDS011;30743;52.008;5.644;2023-09-19T14:14:20;2.60;;;0.57;;
45007;SDS011;30743;52.008;5.644;2023-09-19T14:16:46;2.85;;;0.63;;
45007;SDS011;30743;52.008;5.644;2023-09-19T14:19:12;6.70;;;0.90;;
45007;SDS011;30743;52.008;5.644;2023-09-19T14:21:40;2.33;;;0.57;;
45007;SDS011;30743;52.008;5.644;2023-09-19T14:24:05;6.57;;;0.80;;
45007;SDS011;30743;52.008;5.644;2023-09-19T14:26:38;2.85;;;0.73;;
45007;SDS011;30743;52.008;5.644;2023-09-19T14:29:04;1.98;;;0.50;;
45007;SDS011;30743;52.008;5.644;2023-09-19T14:31:32;3.13;;;0.55;;
45007;SDS011;30743;52.008;5.644;2023-09-19T14:33:58;14.15;;;1.17;;
45007;SDS011;30743;52.008;5.644;2023-09-19T14:36:24;3.70;;;0.63;;
45007;SDS011;30743;52.008;5.644;2023-09-19T14:38:52;3.50;;;0.80;;
45007;SDS011;30743;52.008;5.644;2023-09-19T14:41:21;4.50;;;0.60;;
45007;SDS011;30743;52.008;5.644;2023-09-19T14:43:48;1.63;;;0.52;;
45007;SDS011;30743;52.008;5.644;2023-09-19T14:46:14;2.15;;;0.70;;
45007;SDS011;30743;52.008;5.644;2023-09-19T14:48:41;1.70;;;0.75;;
45007;SDS011;30743;52.008;5.644;2023-09-19T14:51:07;2.20;;;0.60;;
45007;SDS011;30743;52.008;5.644;2023-09-19T14:53:37;2.67;;;0.80;;
45007;SDS011;30743;52.008;5.644;2023-09-19T14:56:04;3.35;;;0.98;;
45007;SDS011;30743;52.008;5.644;2023-09-19T14:58:32;4.63;;;0.70;;
45007;SDS011;30743;52.008;5.644;2023-09-19T15:01:09;2.13;;;0.55;;
45007;SDS011;30743;52.008;5.644;2023-09-19T15:03:36;2.15;;;0.65;;
45007;SDS011;30743;52.008;5.644;2023-09-19T15:06:04;3.15;;;1.15;;
45007;SDS011;30743;52.008;5.644;2023-09-19T15:08:35;2.15;;;0.68;;
45007;SDS011;30743;52.008;5.644;2023-09-19T15:11:05;1.95;;;0.50;;
45007;SDS011;30743;52.008;5.644;2023-09-19T15:13:32;2.67;;;0.88;;
45007;SDS011;30743;52.008;5.644;2023-09-19T15:15:59;2.10;;;0.70;;
45007;SDS011;30743;52.008;5.644;2023-09-19T15:18:29;3.08;;;1.00;;
45007;SDS011;30743;52.008;5.644;2023-09-19T15:20:56;1.95;;;0.75;;
45007;SDS011;30743;52.008;5.644;2023-09-19T15:23:25;2.95;;;0.95;;
45007;SDS011;30743;52.008;5.644;2023-09-19T15:25:50;5.30;;;0.93;;
45007;SDS011;30743;52.008;5.644;2023-09-19T15:28:16;2.53;;;0.60;;
45007;SDS011;30743;52.008;5.644;2023-09-19T15:30:42;5.00;;;0.90;;
45007;SDS011;30743;52.008;5.644;2023-09-19T15:33:09;3.83;;;0.90;;
45007;SDS011;30743;52.008;5.644;2023-09-19T15:35:34;5.05;;;1.23;;
45007;SDS011;30743;52.008;5.644;2023-09-19T15:38:02;2.08;;;0.73;;
45007;SDS011;30743;52.008;5.644;2023-09-19T15:40:28;1.67;;;0.75;;
45007;SDS011;30743;52.008;5.644;2023-09-19T15:42:54;4.50;;;0.90;;
45007;SDS011;30743;52.008;5.644;2023-09-19T15:45:21;2.33;;;0.88;;
45007;SDS011;30743;52.008;5.644;2023-09-19T15:47:46;2.40;;;0.70;;
45007;SDS011;30743;52.008;5.644;2023-09-19T15:50:12;3.72;;;0.90;;
45007;SDS011;30743;52.008;5.644;2023-09-19T15:52:41;2.67;;;0.82;;
45007;SDS011;30743;52.008;5.644;2023-09-19T15:55:07;3.38;;;0.93;;
45007;SDS011;30743;52.008;5.644;2023-09-19T15:57:34;2.15;;;0.80;;
45007;SDS011;30743;52.008;5.644;2023-09-19T16:00:01;1.40;;;0.77;;
45007;SDS011;30743;52.008;5.644;2023-09-19T16:02:29;4.38;;;0.95;;